sensor_id;sensor_type;location;lat;lon;timestamp;temperature;humidity
25949;DHT22;13961;51.178;4.448;2023-03-23T00:01:02;13.70;99.90
25949;DHT22;13961;51.178;4.448;2023-03-23T00:03:28;13.70;99.90
25949;DHT22;13961;51.178;4.448;2023-03-23T00:05:55;13.80;99.90
25949;DHT22;13961;51.178;4.448;2023-03-23T00:08:25;13.80;99.90
25949;DHT22;13961;51.178;4.448;2023-03-23T00:10:52;13.70;99.90
25949;DHT22;13961;51.178;4.448;2023-03-23T00:13:19;13.80;99.90
25949;DHT22;13961;51.178;4.448;2023-03-23T00:15:46;13.70;99.90
25949;DHT22;13961;51.178;4.448;2023-03-23T00:18:17;13.80;99.90
25949;DHT22;13961;51.178;4.448;2023-03-23T00:20:50;13.70;99.90
25949;DHT22;13961;51.178;4.448;2023-03-23T00:23:18;13.70;99.90
25949;DHT22;13961;51.178;4.448;2023-03-23T00:25:51;13.60;99.90
25949;DHT22;13961;51.178;4.448;2023-03-23T00:28:25;13.70;99.90
25949;DHT22;13961;51.178;4.448;2023-03-23T00:30:59;13.50;99.90
25949;DHT22;13961;51.178;4.448;2023-03-23T00:33:27;13.60;99.90
25949;DHT22;13961;51.178;4.448;2023-03-23T00:35:54;13.60;99.90
25949;DHT22;13961;51.178;4.448;2023-03-23T00:38:21;13.60;99.90
25949;DHT22;13961;51.178;4.448;2023-03-23T00:40:48;13.70;99.90
25949;DHT22;13961;51.178;4.448;2023-03-23T00:43:15;13.60;99.90
25949;DHT22;13961;51.178;4.448;2023-03-23T00:45:42;13.50;99.90
25949;DHT22;13961;51.178;4.448;2023-03-23T00:48:11;13.50;99.90
25949;DHT22;13961;51.178;4.448;2023-03-23T00:50:39;13.50;99.90
25949;DHT22;13961;51.178;4.448;2023-03-23T00:53:06;13.60;99.90
25949;DHT22;13961;51.178;4.448;2023-03-23T00:55:33;13.60;99.90
25949;DHT22;13961;51.178;4.448;2023-03-23T00:57:59;13.60;99.90
25949;DHT22;13961;51.178;4.448;2023-03-23T01:00:26;13.60;99.90
25949;DHT22;13961;51.178;4.448;2023-03-23T01:02:56;13.70;99.90
25949;DHT22;13961;51.178;4.448;2023-03-23T01:05:22;13.60;99.90
25949;DHT22;13961;51.178;4.448;2023-03-23T01:07:47;13.50;99.90
25949;DHT22;13961;51.178;4.448;2023-03-23T01:10:14;13.60;99.90
25949;DHT22;13961;51.178;4.448;2023-03-23T01:12:44;13.70;99.90
25949;DHT22;13961;51.178;4.448;2023-03-23T01:15:16;13.70;99.90
25949;DHT22;13961;51.178;4.448;2023-03-23T01:17:43;13.70;99.90
25949;DHT22;13961;51.178;4.448;2023-03-23T01:20:09;13.70;99.90
25949;DHT22;13961;51.178;4.448;2023-03-23T01:22:37;13.70;99.90
25949;DHT22;13961;51.178;4.448;2023-03-23T01:25:04;13.70;99.90
25949;DHT22;13961;51.178;4.448;2023-03-23T01:27:30;13.70;99.90
25949;DHT22;13961;51.178;4.448;2023-03-23T01:29:55;13.70;99.90
25949;DHT22;13961;51.178;4.448;2023-03-23T01:32:21;13.70;99.90
25949;DHT22;13961;51.178;4.448;2023-03-23T01:34:47;13.70;99.90
25949;DHT22;13961;51.178;4.448;2023-03-23T01:37:13;13.80;99.90
25949;DHT22;13961;51.178;4.448;2023-03-23T01:39:38;13.80;99.90
25949;DHT22;13961;51.178;4.448;2023-03-23T01:42:04;13.80;99.90
25949;DHT22;13961;51.178;4.448;2023-03-23T01:46:56;13.70;99.90
25949;DHT22;13961;51.178;4.448;2023-03-23T01:49:29;13.80;99.90
25949;DHT22;13961;51.178;4.448;2023-03-23T01:52:01;13.70;99.90
25949;DHT22;13961;51.178;4.448;2023-03-23T01:54:28;13.80;99.90
25949;DHT22;13961;51.178;4.448;2023-03-23T01:57:09;13.80;99.90
25949;DHT22;13961;51.178;4.448;2023-03-23T01:59:37;13.80;99.90
25949;DHT22;13961;51.178;4.448;2023-03-23T02:02:03;13.80;99.90
25949;DHT22;13961;51.178;4.448;2023-03-23T02:04:30;13.70;99.90
25949;DHT22;13961;51.178;4.448;2023-03-23T02:06:57;13.80;99.90
25949;DHT22;13961;51.178;4.448;2023-03-23T02:09:25;13.70;99.90
25949;DHT22;13961;51.178;4.448;2023-03-23T02:11:52;13.80;99.90
25949;DHT22;13961;51.178;4.448;2023-03-23T02:14:19;13.80;99.90
25949;DHT22;13961;51.178;4.448;2023-03-23T02:22:43;13.70;99.90
25949;DHT22;13961;51.178;4.448;2023-03-23T02:36:58;13.60;99.90
25949;DHT22;13961;51.178;4.448;2023-03-23T02:39:44;13.50;99.90
25949;DHT22;13961;51.178;4.448;2023-03-23T02:42:15;13.40;99.90
25949;DHT22;13961;51.178;4.448;2023-03-23T02:44:44;13.50;99.90
25949;DHT22;13961;51.178;4.448;2023-03-23T02:47:17;13.70;99.90
25949;DHT22;13961;51.178;4.448;2023-03-23T02:49:46;13.70;99.90
25949;DHT22;13961;51.178;4.448;2023-03-23T02:52:19;13.60;99.90
25949;DHT22;13961;51.178;4.448;2023-03-23T02:54:48;13.60;99.90
25949;DHT22;13961;51.178;4.448;2023-03-23T02:57:14;13.60;99.90
25949;DHT22;13961;51.178;4.448;2023-03-23T02:59:41;13.60;99.90
25949;DHT22;13961;51.178;4.448;2023-03-23T03:02:12;13.70;99.90
25949;DHT22;13961;51.178;4.448;2023-03-23T03:04:41;13.60;99.90
25949;DHT22;13961;51.178;4.448;2023-03-23T03:12:46;13.30;99.90
25949;DHT22;13961;51.178;4.448;2023-03-23T03:17:57;13.40;99.90
25949;DHT22;13961;51.178;4.448;2023-03-23T03:20:26;13.50;99.90
25949;DHT22;13961;51.178;4.448;2023-03-23T03:22:54;13.40;99.90
25949;DHT22;13961;51.178;4.448;2023-03-23T03:25:20;13.40;99.90
25949;DHT22;13961;51.178;4.448;2023-03-23T03:27:48;13.30;99.90
25949;DHT22;13961;51.178;4.448;2023-03-23T03:30:21;13.30;99.90
25949;DHT22;13961;51.178;4.448;2023-03-23T03:32:50;13.40;99.90
25949;DHT22;13961;51.178;4.448;2023-03-23T03:35:20;13.50;99.90
25949;DHT22;13961;51.178;4.448;2023-03-23T03:37:46;13.50;99.90
25949;DHT22;13961;51.178;4.448;2023-03-23T03:40:15;13.50;99.90
25949;DHT22;13961;51.178;4.448;2023-03-23T03:42:43;13.60;99.90
25949;DHT22;13961;51.178;4.448;2023-03-23T03:45:12;13.60;99.90
25949;DHT22;13961;51.178;4.448;2023-03-23T03:47:38;13.50;99.90
25949;DHT22;13961;51.178;4.448;2023-03-23T03:50:04;13.50;99.90
25949;DHT22;13961;51.178;4.448;2023-03-23T03:52:31;13.50;99.90
25949;DHT22;13961;51.178;4.448;2023-03-23T03:54:57;13.50;99.90
25949;DHT22;13961;51.178;4.448;2023-03-23T03:57:23;13.60;99.90
25949;DHT22;13961;51.178;4.448;2023-03-23T03:59:49;13.50;99.90
25949;DHT22;13961;51.178;4.448;2023-03-23T04:02:17;13.60;99.90
25949;DHT22;13961;51.178;4.448;2023-03-23T04:04:49;13.50;99.90
25949;DHT22;13961;51.178;4.448;2023-03-23T04:07:15;13.50;99.90
25949;DHT22;13961;51.178;4.448;2023-03-23T04:09:45;13.40;99.90
25949;DHT22;13961;51.178;4.448;2023-03-23T04:12:14;13.50;99.90
25949;DHT22;13961;51.178;4.448;2023-03-23T04:14:40;13.50;99.90
25949;DHT22;13961;51.178;4.448;2023-03-23T04:17:06;13.60;99.90
25949;DHT22;13961;51.178;4.448;2023-03-23T04:19:35;13.50;99.90
25949;DHT22;13961;51.178;4.448;2023-03-23T04:22:03;13.50;99.90
25949;DHT22;13961;51.178;4.448;2023-03-23T04:24:29;13.40;99.90
25949;DHT22;13961;51.178;4.448;2023-03-23T04:26:57;13.50;99.90
25949;DHT22;13961;51.178;4.448;2023-03-23T04:29:23;13.50;99.90
25949;DHT22;13961;51.178;4.448;2023-03-23T04:31:49;13.40;99.90
25949;DHT22;13961;51.178;4.448;2023-03-23T04:34:18;13.30;99.90
25949;DHT22;13961;51.178;4.448;2023-03-23T04:36:44;13.20;99.90
25949;DHT22;13961;51.178;4.448;2023-03-23T04:39:11;13.30;99.90
25949;DHT22;13961;51.178;4.448;2023-03-23T04:41:39;13.10;99.90
25949;DHT22;13961;51.178;4.448;2023-03-23T04:44:06;13.00;99.90
25949;DHT22;13961;51.178;4.448;2023-03-23T04:46:32;12.90;99.90
25949;DHT22;13961;51.178;4.448;2023-03-23T04:48:59;12.90;99.90
25949;DHT22;13961;51.178;4.448;2023-03-23T04:51:28;12.90;99.90
25949;DHT22;13961;51.178;4.448;2023-03-23T04:53:54;13.00;99.90
25949;DHT22;13961;51.178;4.448;2023-03-23T04:56:21;12.90;99.90
25949;DHT22;13961;51.178;4.448;2023-03-23T04:58:46;13.00;99.90
25949;DHT22;13961;51.178;4.448;2023-03-23T05:01:12;13.00;99.90
25949;DHT22;13961;51.178;4.448;2023-03-23T05:03:44;13.00;99.90
25949;DHT22;13961;51.178;4.448;2023-03-23T05:06:10;13.00;99.90
25949;DHT22;13961;51.178;4.448;2023-03-23T05:08:36;13.00;99.90
25949;DHT22;13961;51.178;4.448;2023-03-23T05:11:05;13.00;99.90
25949;DHT22;13961;51.178;4.448;2023-03-23T05:13:31;13.00;99.90
25949;DHT22;13961;51.178;4.448;2023-03-23T05:15:57;13.00;99.90
25949;DHT22;13961;51.178;4.448;2023-03-23T05:18:24;13.20;99.90
25949;DHT22;13961;51.178;4.448;2023-03-23T05:20:51;13.20;99.90
25949;DHT22;13961;51.178;4.448;2023-03-23T05:23:19;13.20;99.90
25949;DHT22;13961;51.178;4.448;2023-03-23T05:25:57;13.20;99.90
25949;DHT22;13961;51.178;4.448;2023-03-23T05:28:27;13.10;99.90
25949;DHT22;13961;51.178;4.448;2023-03-23T05:30:59;13.20;99.90
25949;DHT22;13961;51.178;4.448;2023-03-23T05:33:25;13.30;99.90
25949;DHT22;13961;51.178;4.448;2023-03-23T05:35:51;13.20;99.90
25949;DHT22;13961;51.178;4.448;2023-03-23T05:38:17;13.10;99.90
25949;DHT22;13961;51.178;4.448;2023-03-23T05:40:43;13.10;99.90
25949;DHT22;13961;51.178;4.448;2023-03-23T05:43:09;13.20;99.90
25949;DHT22;13961;51.178;4.448;2023-03-23T05:45:35;13.30;99.90
25949;DHT22;13961;51.178;4.448;2023-03-23T05:48:01;13.30;99.90
25949;DHT22;13961;51.178;4.448;2023-03-23T05:50:27;13.30;99.90
25949;DHT22;13961;51.178;4.448;2023-03-23T05:52:54;13.20;99.90
25949;DHT22;13961;51.178;4.448;2023-03-23T05:55:20;13.20;99.90
25949;DHT22;13961;51.178;4.448;2023-03-23T05:57:46;13.20;99.90
25949;DHT22;13961;51.178;4.448;2023-03-23T06:00:12;13.10;99.90
25949;DHT22;13961;51.178;4.448;2023-03-23T06:02:45;13.10;99.90
25949;DHT22;13961;51.178;4.448;2023-03-23T06:05:11;12.80;99.90
25949;DHT22;13961;51.178;4.448;2023-03-23T06:07:37;12.80;99.90
25949;DHT22;13961;51.178;4.448;2023-03-23T06:10:08;12.70;99.90
25949;DHT22;13961;51.178;4.448;2023-03-23T06:12:36;12.70;99.90
25949;DHT22;13961;51.178;4.448;2023-03-23T06:15:02;12.70;99.90
25949;DHT22;13961;51.178;4.448;2023-03-23T06:17:30;12.60;99.90
25949;DHT22;13961;51.178;4.448;2023-03-23T06:19:56;12.60;99.90
25949;DHT22;13961;51.178;4.448;2023-03-23T06:22:22;12.40;99.90
25949;DHT22;13961;51.178;4.448;2023-03-23T06:24:47;12.40;99.90
25949;DHT22;13961;51.178;4.448;2023-03-23T06:27:14;12.50;99.90
25949;DHT22;13961;51.178;4.448;2023-03-23T06:29:41;12.60;99.90
25949;DHT22;13961;51.178;4.448;2023-03-23T06:32:09;12.70;99.90
25949;DHT22;13961;51.178;4.448;2023-03-23T06:34:36;12.60;99.90
25949;DHT22;13961;51.178;4.448;2023-03-23T06:37:01;12.50;99.90
25949;DHT22;13961;51.178;4.448;2023-03-23T06:39:27;12.30;99.90
25949;DHT22;13961;51.178;4.448;2023-03-23T06:41:53;12.00;99.90
25949;DHT22;13961;51.178;4.448;2023-03-23T06:44:19;11.60;99.90
25949;DHT22;13961;51.178;4.448;2023-03-23T06:46:45;11.50;99.90
25949;DHT22;13961;51.178;4.448;2023-03-23T06:49:10;11.40;99.90
25949;DHT22;13961;51.178;4.448;2023-03-23T06:51:36;11.30;99.90
25949;DHT22;13961;51.178;4.448;2023-03-23T06:54:03;11.40;99.90
25949;DHT22;13961;51.178;4.448;2023-03-23T06:56:29;11.40;99.90
25949;DHT22;13961;51.178;4.448;2023-03-23T06:58:55;11.20;99.90
25949;DHT22;13961;51.178;4.448;2023-03-23T07:01:21;11.30;99.90
25949;DHT22;13961;51.178;4.448;2023-03-23T07:03:47;11.40;99.90
25949;DHT22;13961;51.178;4.448;2023-03-23T07:06:14;11.50;99.90
25949;DHT22;13961;51.178;4.448;2023-03-23T07:08:40;11.50;99.90
25949;DHT22;13961;51.178;4.448;2023-03-23T07:11:06;11.40;99.90
25949;DHT22;13961;51.178;4.448;2023-03-23T07:13:32;11.60;99.90
25949;DHT22;13961;51.178;4.448;2023-03-23T07:15:58;11.60;99.90
25949;DHT22;13961;51.178;4.448;2023-03-23T07:18:24;11.60;99.90
25949;DHT22;13961;51.178;4.448;2023-03-23T07:20:51;11.40;99.90
25949;DHT22;13961;51.178;4.448;2023-03-23T07:23:18;11.40;99.90
25949;DHT22;13961;51.178;4.448;2023-03-23T07:25:45;11.40;99.90
25949;DHT22;13961;51.178;4.448;2023-03-23T07:28:12;11.50;99.90
25949;DHT22;13961;51.178;4.448;2023-03-23T07:30:38;11.30;99.90
25949;DHT22;13961;51.178;4.448;2023-03-23T07:33:07;11.30;99.90
25949;DHT22;13961;51.178;4.448;2023-03-23T07:35:34;11.30;99.90
25949;DHT22;13961;51.178;4.448;2023-03-23T07:38:01;11.20;99.90
25949;DHT22;13961;51.178;4.448;2023-03-23T07:40:28;11.20;99.90
25949;DHT22;13961;51.178;4.448;2023-03-23T07:42:56;11.40;99.90
25949;DHT22;13961;51.178;4.448;2023-03-23T07:45:22;11.40;99.90
25949;DHT22;13961;51.178;4.448;2023-03-23T07:47:51;11.40;99.90
25949;DHT22;13961;51.178;4.448;2023-03-23T07:50:19;11.30;99.90
25949;DHT22;13961;51.178;4.448;2023-03-23T07:52:48;11.40;99.90
25949;DHT22;13961;51.178;4.448;2023-03-23T07:55:14;11.60;99.90
25949;DHT22;13961;51.178;4.448;2023-03-23T07:57:44;11.70;99.90
25949;DHT22;13961;51.178;4.448;2023-03-23T08:00:11;11.60;99.90
25949;DHT22;13961;51.178;4.448;2023-03-23T08:02:47;11.40;99.90
25949;DHT22;13961;51.178;4.448;2023-03-23T08:05:14;11.30;99.90
25949;DHT22;13961;51.178;4.448;2023-03-23T08:07:41;11.50;99.90
25949;DHT22;13961;51.178;4.448;2023-03-23T08:10:09;11.80;99.90
25949;DHT22;13961;51.178;4.448;2023-03-23T08:12:42;12.00;99.90
25949;DHT22;13961;51.178;4.448;2023-03-23T08:15:10;12.20;99.90
25949;DHT22;13961;51.178;4.448;2023-03-23T08:17:42;12.30;99.90
25949;DHT22;13961;51.178;4.448;2023-03-23T08:20:10;12.20;99.90
25949;DHT22;13961;51.178;4.448;2023-03-23T08:22:43;12.30;99.90
25949;DHT22;13961;51.178;4.448;2023-03-23T08:25:13;12.40;99.90
25949;DHT22;13961;51.178;4.448;2023-03-23T08:27:39;12.40;99.90
25949;DHT22;13961;51.178;4.448;2023-03-23T08:30:17;12.40;99.90
25949;DHT22;13961;51.178;4.448;2023-03-23T08:32:45;12.50;99.90
25949;DHT22;13961;51.178;4.448;2023-03-23T08:35:13;12.70;99.90
25949;DHT22;13961;51.178;4.448;2023-03-23T08:37:40;12.60;99.90
25949;DHT22;13961;51.178;4.448;2023-03-23T08:40:08;12.70;99.90
25949;DHT22;13961;51.178;4.448;2023-03-23T08:42:42;12.90;99.90
25949;DHT22;13961;51.178;4.448;2023-03-23T08:45:13;13.10;99.90
25949;DHT22;13961;51.178;4.448;2023-03-23T08:47:40;13.30;99.90
25949;DHT22;13961;51.178;4.448;2023-03-23T08:50:11;14.30;99.90
25949;DHT22;13961;51.178;4.448;2023-03-23T08:52:38;14.80;99.90
25949;DHT22;13961;51.178;4.448;2023-03-23T08:55:05;15.50;99.90
25949;DHT22;13961;51.178;4.448;2023-03-23T08:57:32;15.90;99.90
25949;DHT22;13961;51.178;4.448;2023-03-23T08:59:58;16.10;99.90
25949;DHT22;13961;51.178;4.448;2023-03-23T09:02:26;15.70;99.90
25949;DHT22;13961;51.178;4.448;2023-03-23T09:04:53;15.10;99.90
25949;DHT22;13961;51.178;4.448;2023-03-23T09:07:19;14.70;99.90
25949;DHT22;13961;51.178;4.448;2023-03-23T09:09:45;14.70;99.90
25949;DHT22;13961;51.178;4.448;2023-03-23T09:12:13;14.60;99.90
25949;DHT22;13961;51.178;4.448;2023-03-23T09:14:39;14.60;99.90
25949;DHT22;13961;51.178;4.448;2023-03-23T09:17:07;14.70;99.90
25949;DHT22;13961;51.178;4.448;2023-03-23T09:19:36;14.50;99.90
25949;DHT22;13961;51.178;4.448;2023-03-23T09:22:02;14.40;99.90
25949;DHT22;13961;51.178;4.448;2023-03-23T09:24:29;14.50;99.90
25949;DHT22;13961;51.178;4.448;2023-03-23T09:26:55;14.10;99.90
25949;DHT22;13961;51.178;4.448;2023-03-23T09:29:21;14.20;99.90
25949;DHT22;13961;51.178;4.448;2023-03-23T09:31:47;14.10;99.90
25949;DHT22;13961;51.178;4.448;2023-03-23T09:34:13;14.20;99.90
25949;DHT22;13961;51.178;4.448;2023-03-23T09:36:41;14.50;99.90
25949;DHT22;13961;51.178;4.448;2023-03-23T09:39:07;14.60;99.90
25949;DHT22;13961;51.178;4.448;2023-03-23T09:49:30;14.60;99.90
25949;DHT22;13961;51.178;4.448;2023-03-23T09:52:11;14.50;99.90
25949;DHT22;13961;51.178;4.448;2023-03-23T09:54:48;14.60;99.90
25949;DHT22;13961;51.178;4.448;2023-03-23T09:57:26;14.80;99.90
25949;DHT22;13961;51.178;4.448;2023-03-23T10:00:03;15.10;99.90
25949;DHT22;13961;51.178;4.448;2023-03-23T10:02:38;15.20;99.90
25949;DHT22;13961;51.178;4.448;2023-03-23T10:05:39;15.20;99.90
25949;DHT22;13961;51.178;4.448;2023-03-23T10:08:15;15.10;99.90
25949;DHT22;13961;51.178;4.448;2023-03-23T10:16:40;15.30;99.90
25949;DHT22;13961;51.178;4.448;2023-03-23T10:19:20;15.70;99.90
25949;DHT22;13961;51.178;4.448;2023-03-23T10:21:51;16.10;99.90
25949;DHT22;13961;51.178;4.448;2023-03-23T10:24:24;16.30;99.90
25949;DHT22;13961;51.178;4.448;2023-03-23T10:29:55;16.10;99.90
25949;DHT22;13961;51.178;4.448;2023-03-23T10:32:39;15.70;99.90
25949;DHT22;13961;51.178;4.448;2023-03-23T10:35:12;15.80;99.90
25949;DHT22;13961;51.178;4.448;2023-03-23T10:37:41;15.70;99.90
25949;DHT22;13961;51.178;4.448;2023-03-23T10:40:21;15.50;99.90
25949;DHT22;13961;51.178;4.448;2023-03-23T10:42:49;15.40;99.90
25949;DHT22;13961;51.178;4.448;2023-03-23T10:45:20;15.40;99.90
25949;DHT22;13961;51.178;4.448;2023-03-23T10:47:55;15.50;99.90
25949;DHT22;13961;51.178;4.448;2023-03-23T10:50:29;15.30;99.90
25949;DHT22;13961;51.178;4.448;2023-03-23T10:52:58;14.90;99.90
25949;DHT22;13961;51.178;4.448;2023-03-23T10:55:36;15.10;99.90
25949;DHT22;13961;51.178;4.448;2023-03-23T10:58:10;15.30;99.90
25949;DHT22;13961;51.178;4.448;2023-03-23T11:00:44;15.40;99.90
25949;DHT22;13961;51.178;4.448;2023-03-23T11:05:45;15.70;99.90
25949;DHT22;13961;51.178;4.448;2023-03-23T11:08:20;15.90;99.90
25949;DHT22;13961;51.178;4.448;2023-03-23T11:10:51;16.00;99.90
25949;DHT22;13961;51.178;4.448;2023-03-23T11:13:20;16.20;99.90
25949;DHT22;13961;51.178;4.448;2023-03-23T11:15:48;16.10;99.90
25949;DHT22;13961;51.178;4.448;2023-03-23T11:18:22;16.10;99.90
25949;DHT22;13961;51.178;4.448;2023-03-23T11:20:53;16.00;99.90
25949;DHT22;13961;51.178;4.448;2023-03-23T11:23:27;15.90;99.90
25949;DHT22;13961;51.178;4.448;2023-03-23T11:26:10;15.90;99.90
25949;DHT22;13961;51.178;4.448;2023-03-23T11:28:37;16.10;99.90
25949;DHT22;13961;51.178;4.448;2023-03-23T11:31:07;16.30;99.90
25949;DHT22;13961;51.178;4.448;2023-03-23T11:36:12;16.50;99.90
25949;DHT22;13961;51.178;4.448;2023-03-23T11:38:38;16.90;99.90
25949;DHT22;13961;51.178;4.448;2023-03-23T11:41:10;17.00;99.90
25949;DHT22;13961;51.178;4.448;2023-03-23T11:43:41;17.10;99.90
25949;DHT22;13961;51.178;4.448;2023-03-23T11:48:59;16.30;99.90
25949;DHT22;13961;51.178;4.448;2023-03-23T11:51:30;16.80;99.90
25949;DHT22;13961;51.178;4.448;2023-03-23T11:54:31;17.20;99.90
25949;DHT22;13961;51.178;4.448;2023-03-23T11:56:59;17.20;99.90
25949;DHT22;13961;51.178;4.448;2023-03-23T11:59:31;17.00;99.90
25949;DHT22;13961;51.178;4.448;2023-03-23T12:02:28;16.90;99.90
25949;DHT22;13961;51.178;4.448;2023-03-23T12:08:13;17.20;99.90
25949;DHT22;13961;51.178;4.448;2023-03-23T12:13:38;17.70;99.90
25949;DHT22;13961;51.178;4.448;2023-03-23T12:25:01;18.00;99.90
25949;DHT22;13961;51.178;4.448;2023-03-23T12:27:46;18.10;99.90
25949;DHT22;13961;51.178;4.448;2023-03-23T12:41:28;17.50;99.90
25949;DHT22;13961;51.178;4.448;2023-03-23T12:44:09;17.30;99.90
25949;DHT22;13961;51.178;4.448;2023-03-23T12:51:55;17.10;99.90
25949;DHT22;13961;51.178;4.448;2023-03-23T12:54:53;17.40;99.90
25949;DHT22;13961;51.178;4.448;2023-03-23T12:57:42;17.60;99.90
25949;DHT22;13961;51.178;4.448;2023-03-23T13:03:18;17.60;99.90
25949;DHT22;13961;51.178;4.448;2023-03-23T13:08:37;18.10;99.90
25949;DHT22;13961;51.178;4.448;2023-03-23T13:11:10;18.20;99.90
25949;DHT22;13961;51.178;4.448;2023-03-23T13:13:44;18.00;99.90
25949;DHT22;13961;51.178;4.448;2023-03-23T13:22:21;17.10;99.90
25949;DHT22;13961;51.178;4.448;2023-03-23T13:25:02;17.20;99.90
25949;DHT22;13961;51.178;4.448;2023-03-23T13:27:29;17.10;99.90
25949;DHT22;13961;51.178;4.448;2023-03-23T13:29:56;16.80;99.90
25949;DHT22;13961;51.178;4.448;2023-03-23T13:32:34;16.20;99.90
25949;DHT22;13961;51.178;4.448;2023-03-23T13:35:03;15.50;99.90
25949;DHT22;13961;51.178;4.448;2023-03-23T13:37:31;15.40;99.90
25949;DHT22;13961;51.178;4.448;2023-03-23T13:40:12;15.20;99.90
25949;DHT22;13961;51.178;4.448;2023-03-23T13:42:49;15.20;99.90
25949;DHT22;13961;51.178;4.448;2023-03-23T13:50:55;15.30;99.90
25949;DHT22;13961;51.178;4.448;2023-03-23T13:53:45;15.70;99.90
25949;DHT22;13961;51.178;4.448;2023-03-23T13:56:39;15.80;99.90
25949;DHT22;13961;51.178;4.448;2023-03-23T13:59:27;15.90;99.90
25949;DHT22;13961;51.178;4.448;2023-03-23T14:01:54;15.80;99.90
25949;DHT22;13961;51.178;4.448;2023-03-23T14:04:22;15.80;99.90
25949;DHT22;13961;51.178;4.448;2023-03-23T14:06:50;15.90;99.90
25949;DHT22;13961;51.178;4.448;2023-03-23T14:09:21;16.10;99.90
25949;DHT22;13961;51.178;4.448;2023-03-23T14:11:56;16.20;99.90
25949;DHT22;13961;51.178;4.448;2023-03-23T14:14:55;15.90;99.90
25949;DHT22;13961;51.178;4.448;2023-03-23T14:17:25;15.40;99.90
25949;DHT22;13961;51.178;4.448;2023-03-23T14:19:54;15.40;99.90
25949;DHT22;13961;51.178;4.448;2023-03-23T14:22:33;15.20;99.90
25949;DHT22;13961;51.178;4.448;2023-03-23T14:27:27;14.70;99.90
25949;DHT22;13961;51.178;4.448;2023-03-23T14:30:12;14.30;99.90
25949;DHT22;13961;51.178;4.448;2023-03-23T14:32:38;14.00;99.90
25949;DHT22;13961;51.178;4.448;2023-03-23T14:35:12;13.80;99.90
25949;DHT22;13961;51.178;4.448;2023-03-23T14:37:38;14.00;99.90
25949;DHT22;13961;51.178;4.448;2023-03-23T14:40:04;14.30;99.90
25949;DHT22;13961;51.178;4.448;2023-03-23T14:42:35;14.70;99.90
25949;DHT22;13961;51.178;4.448;2023-03-23T14:45:04;14.70;99.90
25949;DHT22;13961;51.178;4.448;2023-03-23T14:47:42;14.70;99.90
25949;DHT22;13961;51.178;4.448;2023-03-23T14:53:22;14.90;99.90
25949;DHT22;13961;51.178;4.448;2023-03-23T14:55:50;15.00;99.90
25949;DHT22;13961;51.178;4.448;2023-03-23T14:58:18;15.20;99.90
25949;DHT22;13961;51.178;4.448;2023-03-23T15:01:09;15.50;99.90
25949;DHT22;13961;51.178;4.448;2023-03-23T15:03:43;15.60;99.90
25949;DHT22;13961;51.178;4.448;2023-03-23T15:06:14;15.80;99.90
25949;DHT22;13961;51.178;4.448;2023-03-23T15:08:40;15.80;99.90
25949;DHT22;13961;51.178;4.448;2023-03-23T15:11:20;15.80;99.90
25949;DHT22;13961;51.178;4.448;2023-03-23T15:13:49;15.70;99.90
25949;DHT22;13961;51.178;4.448;2023-03-23T15:19:15;15.50;99.90
25949;DHT22;13961;51.178;4.448;2023-03-23T15:21:49;15.50;99.90
25949;DHT22;13961;51.178;4.448;2023-03-23T15:24:31;15.40;99.90
25949;DHT22;13961;51.178;4.448;2023-03-23T15:29:58;15.50;99.90
25949;DHT22;13961;51.178;4.448;2023-03-23T15:32:38;15.60;99.90
25949;DHT22;13961;51.178;4.448;2023-03-23T15:35:12;15.70;99.90
25949;DHT22;13961;51.178;4.448;2023-03-23T15:37:43;15.90;99.90
25949;DHT22;13961;51.178;4.448;2023-03-23T15:40:18;16.00;99.90
25949;DHT22;13961;51.178;4.448;2023-03-23T15:42:45;15.80;99.90
25949;DHT22;13961;51.178;4.448;2023-03-23T15:52:40;15.80;99.90
25949;DHT22;13961;51.178;4.448;2023-03-23T15:55:25;15.90;99.90
25949;DHT22;13961;51.178;4.448;2023-03-23T15:57:52;15.90;99.90
25949;DHT22;13961;51.178;4.448;2023-03-23T16:00:21;16.00;99.90
25949;DHT22;13961;51.178;4.448;2023-03-23T16:02:51;16.00;99.90
25949;DHT22;13961;51.178;4.448;2023-03-23T16:05:18;16.00;99.90
25949;DHT22;13961;51.178;4.448;2023-03-23T16:07:44;16.10;99.90
25949;DHT22;13961;51.178;4.448;2023-03-23T16:10:19;16.10;99.90
25949;DHT22;13961;51.178;4.448;2023-03-23T16:12:45;16.00;99.90
25949;DHT22;13961;51.178;4.448;2023-03-23T16:15:12;16.00;99.90
25949;DHT22;13961;51.178;4.448;2023-03-23T16:17:38;16.00;99.90
25949;DHT22;13961;51.178;4.448;2023-03-23T16:20:27;15.90;99.90
25949;DHT22;13961;51.178;4.448;2023-03-23T16:22:53;15.90;99.90
25949;DHT22;13961;51.178;4.448;2023-03-23T16:25:19;15.80;99.90
25949;DHT22;13961;51.178;4.448;2023-03-23T16:27:45;15.40;99.90
25949;DHT22;13961;51.178;4.448;2023-03-23T16:30:24;15.30;99.90
25949;DHT22;13961;51.178;4.448;2023-03-23T16:32:51;15.10;99.90
25949;DHT22;13961;51.178;4.448;2023-03-23T16:35:17;15.10;99.90
25949;DHT22;13961;51.178;4.448;2023-03-23T16:37:47;15.10;99.90
25949;DHT22;13961;51.178;4.448;2023-03-23T16:40:14;15.20;99.90
25949;DHT22;13961;51.178;4.448;2023-03-23T16:42:41;15.20;99.90
25949;DHT22;13961;51.178;4.448;2023-03-23T16:45:07;15.20;99.90
25949;DHT22;13961;51.178;4.448;2023-03-23T16:47:33;15.20;99.90
25949;DHT22;13961;51.178;4.448;2023-03-23T16:49:58;15.30;99.90
25949;DHT22;13961;51.178;4.448;2023-03-23T16:52:24;15.20;99.90
25949;DHT22;13961;51.178;4.448;2023-03-23T16:54:50;15.40;99.90
25949;DHT22;13961;51.178;4.448;2023-03-23T16:57:16;15.40;99.90
25949;DHT22;13961;51.178;4.448;2023-03-23T16:59:41;15.40;99.90
25949;DHT22;13961;51.178;4.448;2023-03-23T17:02:10;15.30;99.90
25949;DHT22;13961;51.178;4.448;2023-03-23T17:04:37;15.20;99.90
25949;DHT22;13961;51.178;4.448;2023-03-23T17:07:06;15.20;99.90
25949;DHT22;13961;51.178;4.448;2023-03-23T17:09:33;15.20;99.90
25949;DHT22;13961;51.178;4.448;2023-03-23T17:11:59;15.30;99.90
25949;DHT22;13961;51.178;4.448;2023-03-23T17:14:26;15.40;99.90
25949;DHT22;13961;51.178;4.448;2023-03-23T17:16:52;15.30;99.90
25949;DHT22;13961;51.178;4.448;2023-03-23T17:19:17;15.20;99.90
25949;DHT22;13961;51.178;4.448;2023-03-23T17:21:43;15.20;99.90
25949;DHT22;13961;51.178;4.448;2023-03-23T17:24:09;15.30;99.90
25949;DHT22;13961;51.178;4.448;2023-03-23T17:26:35;15.30;99.90
25949;DHT22;13961;51.178;4.448;2023-03-23T17:29:02;15.30;99.90
25949;DHT22;13961;51.178;4.448;2023-03-23T17:31:27;15.30;99.90
25949;DHT22;13961;51.178;4.448;2023-03-23T17:33:53;15.30;99.90
25949;DHT22;13961;51.178;4.448;2023-03-23T17:36:20;15.30;99.90
25949;DHT22;13961;51.178;4.448;2023-03-23T17:38:45;15.30;99.90
25949;DHT22;13961;51.178;4.448;2023-03-23T17:41:11;15.40;99.90
25949;DHT22;13961;51.178;4.448;2023-03-23T17:43:38;15.40;99.90
25949;DHT22;13961;51.178;4.448;2023-03-23T17:46:06;15.40;99.90